ePrivacy and GPDR Cookie Consent by Cookie Consent
EmailTwitter


Observations de surface / Québec / CYUL (71627)

Régions: Québec | Canada | États-Unis | Europe | France | UK | Ailleurs
Station
Affichage
Infos & localisation pour CYUL (71627) | Aide pour décoder les METARs

Observations prises le 2022-08-14 à 13H00 UTC à MONTREAL INTL A, QB (CYUL)

Etat du ciel: partiellement nuageux.

Température: 19.0 Celsius

Point de rosée: 14.0 Celsius

Humidité relative: 73%

Vents: Variable à 4 km/h ou 2 noeuds.

Pression au niveau moyen de la mer: 101.79 kilopascals.

Calage altimétrique: 101.76 kilopascals ou 30.05 pouces de mercure.

Visibilité horizontale: 30.00 milles terrestres ou 48.00 kilomètres.

Hauteur du plafond: 7620 mètres ( 25000 pieds ).

Observation METAR:

CYUL 141300Z VRB02KT 30SM FEW045 BKN250 19/14 A3005 RMK CF1CI5 SLP179 DENSITY

ALT 600FT=